Pitt Greenville Airport
KPGV : now visible

Airfield :











YOU CAN JOIN US ON...

 
LOGIN :

Register | Disclaimer

   EN    FR    IT 

 









Legend :    VFR   Marginal VFR   IFR   Intensive IFR   Very Intensive IFR
Visi :
Ceiling :
>= 8 km
>= 3000ft
5 to 8 km
1000 to 3000 ft
1500m to 5 km
500 to 1000 ft
800 to 1500m
200 to 500 ft
< 800m
< 200 ft
Symbols :   Thunderstorms  Fog  Heavy snow  Heavy precipitations  Wind > 20 kt







- Airport Elevation : 26 ft


KPGV - Pitt Greenville

CURRENT METAR :
  • 220155Z AUTO 20006KT 10SM CLR 21/16 A3024 RMK AO2

EXPIRED METARs :
  • 220135Z AUTO 20007KT 10SM CLR 21/16 A3024 RMK AO2
  • 220115Z AUTO 19003KT 10SM CLR 20/17 A3023 RMK AO2
  • 220055Z AUTO 00000KT 10SM CLR 20/18 A3023 RMK AO2
  • 220035Z AUTO 00000KT 10SM CLR 21/18 A3023 RMK AO2
  • 220015Z AUTO 00000KT 10SM CLR 21/18 A3022 RMK AO2
  • 212355Z AUTO 00000KT 10SM CLR 21/18 A3022 RMK AO2
  • 212335Z AUTO 00000KT 10SM CLR 22/18 A3022 RMK AO2
  • 212315Z AUTO 00000KT 10SM CLR 23/19 A3021 RMK AO2

TAF KPGV
Valid from the 22 at 00:00 until the 23 at 00:00 UTC


212320Z 2200/2224 20003KT P6SM SKC
FM220700 20002KT 3SM BR SKC
FM221200 22006KT P6SM SKC AMD LTD TO CLD VIS AND WIND
No reported NOTAMs for that airfield.



MET'MAP, your aeronautical weather chart ! - Copyright ORBIFLY December 2007 - Disclaimer

ORBIFLY MET'MAP TEAM :

Programming & Development : Alexandra Zaïnal
Concept & Development : Baudouin d'Aumeries
Co-Development & Prog : Marc-Olivier Méhu
Technical & hardware support : Manuel Goepfert

Contact : metmap@orbifly.com




SOURCES & CREDITS :

   NOAA       Earth
Advisory